createdAt,value
2022-09-30T00:00:33.322Z,12.55
2022-09-30T00:03:00.005Z,12.65
2022-09-30T00:05:26.768Z,12.62
2022-09-30T00:07:53.452Z,12.62
2022-09-30T00:10:20.113Z,12.65
2022-09-30T00:12:51.147Z,12.62
2022-09-30T00:15:18.348Z,12.67
2022-09-30T00:17:44.984Z,12.68
2022-09-30T00:20:11.664Z,12.70
2022-09-30T00:22:38.306Z,12.79
2022-09-30T00:25:05.232Z,12.72
2022-09-30T00:27:32.045Z,12.76
2022-09-30T00:29:58.889Z,12.78
2022-09-30T00:32:25.607Z,12.88
2022-09-30T00:34:52.303Z,12.93
2022-09-30T00:37:19.053Z,13.01
2022-09-30T00:39:45.795Z,13.05
2022-09-30T00:42:14.784Z,13.09
2022-09-30T00:44:52.745Z,13.22
2022-09-30T00:47:38.399Z,13.21
2022-09-30T00:50:26.222Z,13.28
2022-09-30T00:52:58.239Z,13.22
2022-09-30T00:55:32.171Z,13.08
2022-09-30T00:58:00.141Z,13.09
2022-09-30T01:00:26.867Z,13.03
2022-09-30T01:02:54.557Z,13.01
2022-09-30T01:05:21.648Z,12.93
2022-09-30T01:07:49.326Z,12.88
2022-09-30T01:10:16.183Z,12.90
2022-09-30T01:12:42.901Z,12.87
2022-09-30T01:15:10.086Z,12.85
2022-09-30T01:17:36.722Z,12.87
2022-09-30T01:20:18.391Z,12.85
2022-09-30T01:23:17.404Z,12.85
2022-09-30T01:26:05.384Z,12.84
2022-09-30T01:28:43.776Z,12.86
2022-09-30T01:31:36.358Z,12.77
2022-09-30T01:34:25.365Z,12.89
2022-09-30T01:37:10.663Z,12.71
2022-09-30T01:39:46.564Z,12.53
2022-09-30T01:42:21.524Z,12.52
2022-09-30T01:45:26.673Z,12.42
2022-09-30T01:48:01.088Z,12.75
2022-09-30T01:50:56.694Z,12.63
2022-09-30T01:53:55.819Z,12.56
2022-09-30T01:56:30.292Z,12.43
2022-09-30T01:58:58.035Z,12.37
2022-09-30T02:01:42.458Z,12.25
2022-09-30T02:04:13.367Z,12.12
2022-09-30T02:06:43.166Z,12.06
2022-09-30T02:09:15.501Z,12.02
2022-09-30T02:11:42.886Z,11.96
2022-09-30T02:14:17.142Z,12.01
2022-09-30T02:16:48.921Z,12.01
2022-09-30T02:19:15.559Z,12.03
2022-09-30T02:21:43.558Z,12.10
2022-09-30T02:24:13.323Z,12.06
2022-09-30T02:26:42.283Z,12.08
2022-09-30T02:29:23.981Z,12.04
2022-09-30T02:31:54.167Z,12.13
2022-09-30T02:34:25.497Z,12.13
2022-09-30T02:37:07.579Z,12.09
2022-09-30T02:40:11.212Z,12.05
2022-09-30T02:42:39.309Z,12.14
2022-09-30T02:45:10.448Z,12.01
2022-09-30T02:47:55.919Z,12.07
2022-09-30T02:50:45.061Z,12.06
2022-09-30T02:53:14.814Z,12.00
2022-09-30T02:56:06.284Z,11.94
2022-09-30T02:58:34.932Z,11.88
2022-09-30T03:01:01.583Z,11.76
2022-09-30T03:03:32.903Z,11.80
2022-09-30T03:05:59.483Z,11.83
2022-09-30T03:08:26.555Z,11.92
2022-09-30T03:10:53.395Z,11.95
2022-09-30T03:13:41.231Z,11.87
2022-09-30T03:16:26.755Z,11.97
2022-09-30T03:19:11.952Z,11.97
2022-09-30T03:22:04.454Z,12.16
2022-09-30T03:24:40.181Z,12.26
2022-09-30T03:27:16.405Z,12.40
2022-09-30T03:30:06.214Z,12.48
2022-09-30T03:33:05.223Z,12.54
2022-09-30T03:35:53.071Z,12.65
2022-09-30T03:38:31.586Z,12.59
2022-09-30T03:41:04.065Z,12.53
2022-09-30T03:43:43.941Z,12.61
2022-09-30T03:46:14.666Z,12.63
2022-09-30T03:48:41.940Z,12.65
2022-09-30T03:51:09.485Z,12.73
2022-09-30T03:53:41.069Z,12.83
2022-09-30T03:56:08.004Z,12.85
2022-09-30T03:58:34.984Z,12.86
2022-09-30T04:01:01.680Z,12.86
2022-09-30T04:03:28.672Z,12.95
2022-09-30T04:05:55.515Z,13.01
2022-09-30T04:08:23.096Z,13.04
2022-09-30T04:10:49.766Z,13.06
2022-09-30T04:13:16.374Z,13.03
2022-09-30T04:15:43.037Z,13.06
2022-09-30T04:18:09.654Z,13.07
2022-09-30T04:20:36.251Z,13.10
2022-09-30T04:23:03.964Z,13.07
2022-09-30T04:25:30.791Z,13.12
2022-09-30T04:27:57.763Z,13.13
2022-09-30T04:30:27.238Z,13.08
2022-09-30T04:32:55.746Z,13.08
2022-09-30T04:35:23.037Z,13.15
2022-09-30T04:37:49.670Z,13.19
2022-09-30T04:40:17.192Z,13.20
2022-09-30T04:42:44.060Z,13.21
2022-09-30T04:45:12.658Z,13.33
2022-09-30T04:47:43.211Z,13.18
2022-09-30T04:50:09.909Z,13.26
2022-09-30T04:52:38.363Z,13.27
2022-09-30T04:55:05.856Z,13.28
2022-09-30T04:57:32.537Z,13.29
2022-09-30T04:59:59.505Z,13.37
2022-09-30T05:02:26.215Z,13.45
2022-09-30T05:04:54.146Z,13.44
2022-09-30T05:07:21.237Z,13.40
2022-09-30T05:09:47.977Z,13.47
2022-09-30T05:12:15.779Z,13.46
2022-09-30T05:14:42.749Z,13.48
2022-09-30T05:17:09.571Z,13.52
2022-09-30T05:19:36.161Z,13.53
2022-09-30T05:22:03.626Z,13.65
2022-09-30T05:24:31.004Z,13.56
2022-09-30T05:26:57.604Z,13.45
2022-09-30T05:29:24.355Z,13.55
2022-09-30T05:31:51.235Z,13.72
2022-09-30T05:34:17.953Z,13.52
2022-09-30T05:36:44.636Z,13.56
2022-09-30T05:39:11.837Z,13.74
2022-09-30T05:41:38.526Z,13.73
2022-09-30T05:44:05.309Z,13.84
2022-09-30T05:46:31.988Z,13.96
2022-09-30T05:48:58.621Z,13.98
2022-09-30T05:51:25.253Z,14.03
2022-09-30T05:53:51.900Z,14.02
2022-09-30T05:56:18.645Z,14.07
2022-09-30T05:58:45.310Z,13.98
2022-09-30T06:01:14.226Z,14.11
2022-09-30T06:03:42.823Z,13.95
2022-09-30T06:06:10.181Z,13.98
2022-09-30T06:08:36.824Z,13.98
2022-09-30T06:11:11.092Z,13.99
2022-09-30T06:13:38.125Z,14.11
2022-09-30T06:16:05.310Z,13.97
2022-09-30T06:18:32.192Z,14.26
2022-09-30T06:21:04.511Z,14.10
2022-09-30T06:23:32.186Z,14.14
2022-09-30T06:25:58.771Z,14.16
2022-09-30T06:28:25.427Z,14.31
2022-09-30T06:30:52.035Z,14.38
2022-09-30T06:33:18.757Z,14.48
2022-09-30T06:35:47.448Z,14.70
2022-09-30T06:38:17.298Z,14.55
2022-09-30T06:40:44.991Z,14.65
2022-09-30T06:43:11.794Z,14.78
2022-09-30T06:45:38.933Z,14.81
2022-09-30T06:48:08.434Z,14.82
2022-09-30T06:50:35.510Z,14.72
2022-09-30T06:53:06.331Z,14.82
2022-09-30T06:55:39.346Z,14.75
2022-09-30T06:58:11.331Z,14.88
2022-09-30T07:00:37.996Z,14.79
2022-09-30T07:03:09.692Z,14.86
2022-09-30T07:05:37.482Z,15.28
2022-09-30T07:08:04.357Z,15.24
2022-09-30T07:10:30.935Z,14.89
2022-09-30T07:12:57.589Z,15.37
2022-09-30T07:15:24.244Z,15.57
2022-09-30T07:17:54.915Z,15.34
2022-09-30T07:20:21.484Z,15.46
2022-09-30T07:22:48.221Z,15.26
2022-09-30T07:25:15.821Z,15.47
2022-09-30T07:27:42.446Z,15.37
2022-09-30T07:30:14.160Z,15.59
2022-09-30T07:32:44.867Z,16.08
2022-09-30T07:35:11.547Z,16.29
2022-09-30T07:37:38.538Z,16.34
2022-09-30T07:40:07.054Z,16.11
2022-09-30T07:42:37.717Z,16.37
2022-09-30T07:45:04.762Z,16.61
2022-09-30T07:47:31.354Z,15.98
2022-09-30T07:49:57.976Z,15.96
2022-09-30T07:52:24.575Z,16.50
2022-09-30T07:54:51.215Z,16.54
2022-09-30T07:57:18.157Z,17.08
2022-09-30T07:59:44.809Z,16.73
2022-09-30T08:02:15.488Z,16.34
2022-09-30T08:04:44.363Z,16.46
2022-09-30T08:07:14.097Z,16.22
2022-09-30T08:09:40.862Z,16.30
2022-09-30T08:12:07.633Z,16.52
2022-09-30T08:14:34.340Z,16.53
2022-09-30T08:17:01.698Z,16.49
2022-09-30T08:19:29.817Z,16.55
2022-09-30T08:21:57.277Z,16.63
2022-09-30T08:24:25.161Z,17.43
2022-09-30T08:26:52.433Z,17.20
2022-09-30T08:32:06.452Z,17.49
2022-09-30T08:34:35.694Z,17.21
2022-09-30T08:37:07.847Z,17.13
2022-09-30T08:39:35.840Z,17.09
2022-09-30T08:42:32.258Z,17.34
2022-09-30T08:45:10.699Z,17.55
2022-09-30T08:47:53.125Z,18.05
2022-09-30T08:50:19.874Z,17.76
2022-09-30T08:52:52.666Z,18.14
2022-09-30T08:55:24.522Z,18.16
2022-09-30T08:57:53.065Z,17.59
2022-09-30T09:00:21.014Z,17.21
2022-09-30T09:02:57.515Z,17.32
2022-09-30T09:05:39.607Z,17.10
2022-09-30T09:08:21.550Z,17.18
2022-09-30T09:10:54.653Z,17.24
2022-09-30T09:13:28.293Z,17.29
2022-09-30T09:16:24.144Z,17.37
2022-09-30T09:18:52.209Z,17.47
2022-09-30T09:21:32.120Z,17.56
2022-09-30T09:24:01.950Z,17.64
2022-09-30T09:26:35.432Z,17.88
2022-09-30T09:29:38.459Z,18.15
2022-09-30T09:32:17.718Z,18.36
2022-09-30T09:34:46.338Z,18.34
2022-09-30T09:37:19.737Z,18.38
2022-09-30T09:40:07.782Z,18.11
2022-09-30T09:42:49.390Z,18.34
2022-09-30T09:45:50.124Z,18.36
2022-09-30T09:48:17.601Z,18.40
2022-09-30T09:51:11.722Z,18.38
2022-09-30T09:53:58.223Z,18.27
2022-09-30T09:56:34.234Z,18.16
2022-09-30T09:59:19.349Z,18.64
2022-09-30T10:01:54.350Z,18.77
2022-09-30T10:04:27.417Z,18.91
2022-09-30T10:07:01.971Z,19.02
2022-09-30T10:09:36.754Z,19.12
2022-09-30T10:12:06.336Z,19.08
2022-09-30T10:14:32.879Z,19.28
2022-09-30T10:17:03.977Z,19.41
2022-09-30T10:19:33.239Z,19.83
2022-09-30T10:22:19.343Z,20.09
2022-09-30T10:24:46.077Z,20.06
2022-09-30T10:27:32.295Z,19.88
2022-09-30T10:29:59.000Z,19.36
2022-09-30T10:32:25.933Z,19.43
2022-09-30T10:34:56.916Z,19.50
2022-09-30T10:37:24.401Z,19.83
2022-09-30T10:40:06.057Z,19.81
2022-09-30T10:42:34.755Z,19.75
2022-09-30T10:45:18.520Z,20.02
2022-09-30T10:47:48.683Z,20.14
2022-09-30T10:50:17.425Z,20.15
2022-09-30T10:52:55.073Z,20.49
2022-09-30T10:55:22.154Z,20.76
2022-09-30T10:57:50.667Z,20.26
2022-09-30T11:00:21.956Z,19.62
2022-09-30T11:03:03.079Z,19.73
2022-09-30T11:05:39.657Z,20.49
2022-09-30T11:08:22.771Z,20.83
2022-09-30T11:11:14.325Z,21.24
2022-09-30T11:13:46.888Z,20.86
2022-09-30T11:16:44.483Z,20.89
2022-09-30T11:19:16.428Z,21.17
2022-09-30T11:21:51.480Z,21.18
2022-09-30T11:24:36.225Z,20.95
2022-09-30T11:27:30.331Z,21.27
2022-09-30T11:30:17.125Z,21.10
2022-09-30T11:32:49.730Z,20.43
2022-09-30T11:35:19.054Z,21.00
2022-09-30T11:38:17.768Z,20.72
2022-09-30T11:41:03.204Z,21.12
2022-09-30T11:43:59.064Z,20.61
2022-09-30T11:46:46.145Z,20.38
2022-09-30T11:49:31.315Z,20.08
2022-09-30T11:52:18.045Z,19.66
2022-09-30T11:54:50.511Z,19.93
2022-09-30T11:57:32.214Z,20.11
2022-09-30T12:00:05.542Z,20.24
2022-09-30T12:02:38.157Z,20.19
2022-09-30T12:05:12.273Z,20.18
2022-09-30T12:08:02.818Z,19.95
2022-09-30T12:10:36.551Z,19.47
2022-09-30T12:13:06.752Z,19.61
2022-09-30T12:15:34.095Z,19.41
2022-09-30T12:18:06.399Z,19.57
2022-09-30T12:20:49.933Z,19.46
2022-09-30T12:23:40.165Z,19.50
2022-09-30T12:26:06.932Z,19.46
2022-09-30T12:29:11.054Z,19.25
2022-09-30T12:31:37.810Z,19.47
2022-09-30T12:34:16.404Z,19.57
2022-09-30T12:36:49.227Z,19.87
2022-09-30T12:39:34.901Z,19.82
2022-09-30T12:42:21.788Z,20.29
2022-09-30T12:44:52.641Z,20.64
2022-09-30T12:47:28.183Z,20.85
2022-09-30T12:49:57.719Z,20.10
2022-09-30T12:52:24.596Z,19.58
2022-09-30T12:54:56.605Z,19.47
2022-09-30T12:57:29.714Z,19.51
2022-09-30T13:00:01.507Z,19.31
2022-09-30T13:02:37.711Z,19.53
2022-09-30T13:05:39.240Z,19.44
2022-09-30T13:08:05.852Z,19.58
2022-09-30T13:10:38.411Z,19.52
2022-09-30T13:13:11.060Z,19.46
2022-09-30T13:15:42.560Z,19.28
2022-09-30T13:18:21.362Z,19.24
2022-09-30T13:20:59.250Z,19.61
2022-09-30T13:23:48.321Z,19.65
2022-09-30T13:26:33.475Z,19.67
2022-09-30T13:29:00.474Z,19.51
2022-09-30T13:31:28.692Z,19.34
2022-09-30T13:34:01.532Z,19.31
2022-09-30T13:36:46.611Z,19.41
2022-09-30T13:39:20.978Z,19.40
2022-09-30T13:42:16.596Z,19.29
2022-09-30T13:45:01.909Z,19.32
2022-09-30T13:47:33.822Z,19.21
2022-09-30T13:50:13.899Z,19.13
2022-09-30T13:52:42.006Z,19.16
2022-09-30T13:55:25.642Z,19.07
2022-09-30T13:58:07.269Z,19.07
2022-09-30T14:00:47.895Z,19.17
2022-09-30T14:03:38.851Z,19.23
2022-09-30T14:06:27.870Z,19.24
2022-09-30T14:09:12.678Z,19.07
2022-09-30T14:12:09.607Z,18.98
2022-09-30T14:14:36.252Z,18.85
2022-09-30T14:17:24.169Z,18.64
2022-09-30T14:20:03.612Z,18.59
2022-09-30T14:22:30.556Z,18.54
2022-09-30T14:24:57.950Z,18.52
2022-09-30T14:27:36.406Z,18.37
2022-09-30T14:30:13.614Z,18.33
2022-09-30T14:32:56.866Z,18.30
2022-09-30T14:35:28.684Z,18.18
2022-09-30T14:38:02.999Z,18.14
2022-09-30T14:40:32.117Z,18.09
2022-09-30T14:43:05.076Z,18.07
2022-09-30T14:45:34.374Z,18.04
2022-09-30T14:48:14.554Z,18.08
2022-09-30T14:50:48.536Z,18.07
2022-09-30T14:53:33.006Z,18.14
2022-09-30T14:56:00.374Z,18.15
2022-09-30T14:58:32.132Z,18.17
2022-09-30T15:00:58.766Z,18.21
2022-09-30T15:03:27.143Z,18.22
2022-09-30T15:05:54.035Z,18.19
2022-09-30T15:08:22.017Z,18.10
2022-09-30T15:10:50.986Z,17.98
2022-09-30T15:13:18.973Z,17.86
2022-09-30T15:15:46.082Z,17.78
2022-09-30T15:18:33.892Z,17.59
2022-09-30T15:21:05.640Z,17.45
2022-09-30T15:23:33.822Z,17.36
2022-09-30T15:26:01.356Z,17.31
2022-09-30T15:28:28.907Z,17.19
2022-09-30T15:30:58.474Z,17.06
2022-09-30T15:33:28.231Z,16.83
2022-09-30T15:36:07.009Z,16.71
2022-09-30T15:38:40.496Z,16.71
2022-09-30T15:41:17.397Z,16.64
2022-09-30T15:43:51.694Z,16.67
2022-09-30T15:46:31.855Z,16.55
2022-09-30T15:49:03.552Z,16.54
2022-09-30T15:51:39.396Z,16.49
2022-09-30T15:54:15.185Z,16.38
2022-09-30T15:56:43.224Z,16.36
2022-09-30T15:59:11.574Z,16.40
2022-09-30T16:01:43.168Z,16.31
2022-09-30T16:04:14.348Z,16.23
2022-09-30T16:06:40.917Z,16.17
2022-09-30T16:09:31.942Z,16.13
2022-09-30T16:12:13.773Z,16.04
2022-09-30T16:15:00.356Z,15.92
2022-09-30T16:17:38.135Z,15.88
2022-09-30T16:20:08.620Z,15.83
2022-09-30T16:22:41.183Z,15.79
2022-09-30T16:25:17.370Z,15.74
2022-09-30T16:27:44.002Z,15.74
2022-09-30T16:30:15.871Z,15.72
2022-09-30T16:32:44.781Z,15.68
2022-09-30T16:35:20.352Z,15.67
2022-09-30T16:37:48.454Z,15.68
2022-09-30T16:40:19.840Z,15.70
2022-09-30T16:42:46.792Z,15.67
2022-09-30T16:45:15.115Z,15.70
2022-09-30T16:47:42.684Z,15.73
2022-09-30T16:50:21.428Z,15.72
2022-09-30T16:52:48.134Z,15.70
2022-09-30T16:57:47.093Z,15.61
2022-09-30T17:00:20.114Z,15.70
2022-09-30T17:02:48.242Z,15.65
2022-09-30T17:05:20.398Z,15.63
2022-09-30T17:07:49.563Z,15.61
2022-09-30T17:10:31.098Z,15.57
2022-09-30T17:13:03.500Z,15.59
2022-09-30T17:15:31.905Z,15.61
2022-09-30T17:17:59.320Z,15.51
2022-09-30T17:20:26.859Z,15.59
2022-09-30T17:22:53.724Z,15.63
2022-09-30T17:25:20.389Z,15.62
2022-09-30T17:27:51.538Z,15.65
2022-09-30T17:30:19.168Z,15.62
2022-09-30T17:32:46.463Z,15.65
2022-09-30T17:35:13.617Z,15.64
2022-09-30T17:37:43.813Z,15.60
2022-09-30T17:40:31.698Z,15.61
2022-09-30T17:43:07.336Z,15.59
2022-09-30T17:45:46.268Z,15.55
2022-09-30T17:48:14.577Z,15.54
2022-09-30T17:50:44.335Z,15.51
2022-09-30T17:53:18.014Z,15.52
2022-09-30T17:55:47.945Z,15.41
2022-09-30T17:58:16.167Z,15.46
2022-09-30T18:00:43.077Z,15.45
2022-09-30T18:03:09.937Z,15.42
2022-09-30T18:05:37.511Z,15.38
2022-09-30T18:08:05.807Z,15.38
2022-09-30T18:10:32.833Z,15.45
2022-09-30T18:12:59.781Z,15.38
2022-09-30T18:15:27.213Z,15.39
2022-09-30T18:17:53.982Z,15.35
2022-09-30T18:20:23.328Z,15.33
2022-09-30T18:22:52.292Z,15.27
2022-09-30T18:25:22.781Z,15.33
2022-09-30T18:27:56.230Z,15.32
2022-09-30T18:30:24.565Z,15.26
2022-09-30T18:32:53.046Z,15.23
2022-09-30T18:35:21.577Z,15.26
2022-09-30T18:37:50.923Z,15.29
2022-09-30T18:40:19.688Z,15.37
2022-09-30T18:42:46.666Z,15.42
2022-09-30T18:45:13.662Z,15.48
2022-09-30T18:47:42.351Z,15.42
2022-09-30T18:50:10.729Z,15.32
2022-09-30T18:52:37.621Z,15.35
2022-09-30T18:55:04.645Z,15.25
2022-09-30T18:57:32.566Z,15.26
2022-09-30T18:59:59.294Z,15.33
2022-09-30T19:02:27.305Z,15.42
2022-09-30T19:04:59.205Z,15.38
2022-09-30T19:07:27.061Z,15.50
2022-09-30T19:09:54.838Z,15.41
2022-09-30T19:12:21.649Z,15.31
2022-09-30T19:14:48.530Z,15.29
2022-09-30T19:17:15.745Z,15.26
2022-09-30T19:19:46.396Z,15.21
2022-09-30T19:22:15.784Z,15.19
2022-09-30T19:24:45.538Z,15.18
2022-09-30T19:27:12.201Z,15.15
2022-09-30T19:29:40.836Z,15.14
2022-09-30T19:32:09.972Z,15.17
2022-09-30T19:34:38.901Z,15.35
2022-09-30T19:37:06.696Z,15.42
2022-09-30T19:39:45.284Z,15.55
2022-09-30T19:42:14.473Z,15.60
2022-09-30T19:44:41.985Z,15.60
2022-09-30T19:47:14.694Z,15.48
2022-09-30T19:49:41.445Z,15.40
2022-09-30T19:52:18.377Z,15.25
2022-09-30T19:54:48.918Z,15.25
2022-09-30T19:57:15.528Z,15.23
2022-09-30T19:59:42.259Z,15.21
2022-09-30T20:02:10.834Z,15.32
2022-09-30T20:04:38.907Z,15.28
2022-09-30T20:07:05.522Z,15.19
2022-09-30T20:09:32.158Z,15.22
2022-09-30T20:11:58.787Z,15.18
2022-09-30T20:14:43.994Z,15.17
2022-09-30T20:17:14.438Z,15.17
2022-09-30T20:19:41.034Z,15.14
2022-09-30T20:22:07.699Z,15.14
2022-09-30T20:24:38.558Z,15.13
2022-09-30T20:27:05.372Z,15.09
2022-09-30T20:29:31.965Z,15.03
2022-09-30T20:32:00.728Z,15.00
2022-09-30T20:34:27.435Z,14.92
2022-09-30T20:36:54.025Z,14.93
2022-09-30T20:39:20.729Z,14.88
2022-09-30T20:41:48.941Z,14.96
2022-09-30T20:44:17.130Z,15.05
2022-09-30T20:46:44.045Z,14.96
2022-09-30T20:49:10.782Z,14.96
2022-09-30T20:51:37.762Z,14.91
2022-09-30T20:54:04.354Z,14.92
2022-09-30T20:56:49.597Z,14.90
2022-09-30T20:59:17.688Z,14.92
2022-09-30T21:01:44.385Z,14.91
2022-09-30T21:04:11.340Z,14.89
2022-09-30T21:06:37.991Z,14.88
2022-09-30T21:09:05.651Z,14.93
2022-09-30T21:11:33.417Z,14.98
2022-09-30T21:14:00.253Z,15.05
2022-09-30T21:16:27.045Z,15.13
2022-09-30T21:18:53.809Z,15.23
2022-09-30T21:21:21.691Z,15.26
2022-09-30T21:23:48.567Z,15.29
2022-09-30T21:26:17.089Z,15.26
2022-09-30T21:28:48.834Z,15.24
2022-09-30T21:31:22.153Z,15.14
2022-09-30T21:33:53.403Z,15.07
2022-09-30T21:36:21.320Z,15.16
2022-09-30T21:38:51.345Z,15.11
2022-09-30T21:41:19.681Z,14.96
2022-09-30T21:43:47.128Z,14.98
2022-09-30T21:46:15.370Z,14.91
2022-09-30T21:48:42.748Z,14.87
2022-09-30T21:51:10.198Z,14.87
2022-09-30T21:53:39.027Z,14.82
2022-09-30T21:56:06.664Z,14.87
2022-09-30T21:58:33.625Z,14.82
2022-09-30T22:01:02.709Z,14.75
2022-09-30T22:03:30.962Z,14.82
2022-09-30T22:05:58.759Z,14.84
2022-09-30T22:08:26.494Z,14.80
2022-09-30T22:10:53.305Z,14.68
2022-09-30T22:13:20.032Z,14.71
2022-09-30T22:15:47.017Z,14.63
2022-09-30T22:18:18.513Z,14.67
2022-09-30T22:20:46.137Z,14.73
2022-09-30T22:23:13.120Z,14.81
2022-09-30T22:25:40.485Z,14.88
2022-09-30T22:28:07.649Z,14.80
2022-09-30T22:30:35.307Z,14.73
2022-09-30T22:33:20.541Z,14.66
2022-09-30T22:36:05.690Z,14.59
2022-09-30T22:38:32.333Z,14.57
2022-09-30T22:40:59.712Z,14.54
2022-09-30T22:43:26.985Z,14.61
2022-09-30T22:46:08.159Z,14.70
2022-09-30T22:48:35.780Z,14.75
2022-09-30T22:51:03.429Z,14.73
2022-09-30T22:53:30.126Z,14.89
2022-09-30T22:55:56.759Z,14.90
2022-09-30T22:58:26.604Z,14.91
2022-09-30T23:00:58.715Z,14.84
2022-09-30T23:03:25.648Z,14.82
2022-09-30T23:05:53.097Z,14.70
2022-09-30T23:08:19.843Z,14.72
2022-09-30T23:10:50.362Z,14.76
2022-09-30T23:13:20.256Z,14.82
2022-09-30T23:15:47.924Z,14.78
2022-09-30T23:18:17.223Z,14.70
2022-09-30T23:21:03.016Z,14.67
2022-09-30T23:23:31.451Z,14.66
2022-09-30T23:26:05.317Z,14.71
2022-09-30T23:28:32.197Z,14.88
2022-09-30T23:31:09.351Z,14.85
2022-09-30T23:33:43.822Z,14.84
2022-09-30T23:36:10.591Z,14.86
2022-09-30T23:38:37.221Z,14.87
2022-09-30T23:41:05.243Z,14.77
2022-09-30T23:43:34.209Z,14.69
2022-09-30T23:46:01.858Z,14.60
2022-09-30T23:48:28.709Z,14.55
2022-09-30T23:50:55.623Z,14.42
2022-09-30T23:53:23.087Z,14.51
2022-09-30T23:56:00.917Z,14.55
2022-09-30T23:58:27.510Z,14.60
